Widner, Indiana
Current Conditions -  °F | °C
As of 3:53 AM on Wednesday 26 Nov 2014 (Local Time) from KLWV Reporting Station
Clear Clear  
Wind Chill: 16°   Ceiling: Unl
Heat Index: 24°   Visibility: 7mi
Dew Point: 22°   Wind: 7mph
Humidity: 91%   Direction: 70°ENE
Pressure: 30.16"   Gusts: NA
Location:  38.8517°N, 87.414°W
Report Text: KLWV 260953Z AUTO 07006KT 7SM CLR M04/M06 A3016 RMK AO2 SLP217 T10441056
Loading
Personal Weather Stations






























Interactive Weather Map New forecast layout! Learn more

10-Day Weather Forecast

Advertisements
Track Severe Weather on mobile